Time;durP1;ratioP1;P1;durP2;ratioP2;P2;SDS_P1;SDS_P2;PMS_P1;PMS_P2;Temp;Humidity;BMP_temperature;BMP_pressure;BME280_temperature;BME280_humidity;BME280_pressure;Samples;Min_cycle;Max_cycle;Signal;HPM_P1;HPM_P2
2022/10/29 00:01:46;;;;;;;10.82;7.50;;;14.10;99.90;;;;;;6287903;22;20205;-86
2022/10/29 00:04:14;;;;;;;9.55;8.15;;;14.10;99.90;;;;;;6239091;22;20185;-87
2022/10/29 00:06:41;;;;;;;16.38;9.48;;;14.10;99.90;;;;;;6270516;22;20210;-87
2022/10/29 00:09:11;;;;;;;13.32;9.07;;;14.00;99.90;;;;;;6278087;22;20211;-87
2022/10/29 00:11:40;;;;;;;10.75;7.78;;;14.00;99.90;;;;;;6278821;22;21142;-85
2022/10/29 00:14:07;;;;;;;11.52;8.48;;;14.00;99.90;;;;;;6274909;22;20186;-85
2022/10/29 00:16:39;;;;;;;13.38;7.80;;;13.90;99.90;;;;;;6290640;22;20174;-87
2022/10/29 00:19:10;;;;;;;19.02;8.43;;;13.90;99.90;;;;;;6290931;22;20162;-89
2022/10/29 00:21:39;;;;;;;9.52;7.45;;;13.80;99.90;;;;;;6292942;22;20254;-87
2022/10/29 00:24:08;;;;;;;12.65;7.97;;;13.80;99.90;;;;;;6262978;22;20217;-88
2022/10/29 00:26:36;;;;;;;10.32;7.88;;;13.70;99.90;;;;;;6296491;22;20193;-88
2022/10/29 00:29:03;;;;;;;8.38;7.13;;;13.60;99.90;;;;;;6290289;22;20199;-88
2022/10/29 00:31:33;;;;;;;9.95;7.85;;;13.60;99.90;;;;;;6266667;22;20175;-86
2022/10/29 00:34:00;;;;;;;8.52;7.50;;;13.70;99.90;;;;;;6297182;22;20245;-88
2022/10/29 00:36:29;;;;;;;15.70;7.90;;;13.60;99.90;;;;;;6263777;22;20187;-87
2022/10/29 00:38:58;;;;;;;8.02;7.03;;;13.70;99.90;;;;;;6297534;22;20205;-86
2022/10/29 00:41:27;;;;;;;11.70;7.72;;;13.80;99.90;;;;;;6304623;22;20194;-86
2022/10/29 00:44:19;;;;;;;10.15;7.88;;;13.90;99.90;;;;;;6275743;22;20177;-86
2022/10/29 00:47:11;;;;;;;7.72;6.93;;;14.10;99.90;;;;;;6271331;22;20159;-88
2022/10/29 00:49:40;;;;;;;14.75;7.78;;;14.10;99.90;;;;;;6272571;22;20194;-87
2022/10/29 00:52:11;;;;;;;8.68;7.10;;;14.20;99.90;;;;;;6261340;22;20243;-87
2022/10/29 00:54:41;;;;;;;8.48;6.60;;;14.10;99.90;;;;;;6287735;22;20183;-87
2022/10/29 00:57:14;;;;;;;8.30;7.50;;;14.20;99.90;;;;;;6259676;22;20198;-88
2022/10/29 00:59:43;;;;;;;8.45;6.90;;;14.30;99.90;;;;;;6281471;22;20170;-86
2022/10/29 01:02:13;;;;;;;8.38;7.15;;;14.30;99.90;;;;;;6259425;22;20183;-88
2022/10/29 01:04:41;;;;;;;9.00;7.85;;;14.40;99.90;;;;;;6258357;22;20183;-88
2022/10/29 01:07:10;;;;;;;9.90;6.70;;;14.60;99.90;;;;;;6287651;22;20221;-87
2022/10/29 01:09:38;;;;;;;9.48;6.78;;;14.60;99.90;;;;;;6260218;22;20203;-86
2022/10/29 01:12:31;;;;;;;8.43;6.35;;;14.80;99.90;;;;;;6259951;22;20778;-88
2022/10/29 01:15:04;;;;;;;11.20;6.85;;;15.00;99.90;;;;;;6259460;22;20475;-87
2022/10/29 01:17:37;;;;;;;11.85;6.78;;;15.00;99.90;;;;;;6287630;22;20225;-86
2022/10/29 01:20:20;;;;;;;8.48;7.53;;;14.80;99.90;;;;;;6261140;22;20212;-87
2022/10/29 01:23:37;;;;;;;7.57;6.72;;;14.80;99.90;;;;;;6266285;22;20479;-86
2022/10/29 01:26:31;;;;;;;16.00;7.05;;;14.80;99.90;;;;;;6259666;22;20501;-87
2022/10/29 01:29:30;;;;;;;8.00;6.15;;;14.90;99.90;;;;;;6256620;22;20574;-87
2022/10/29 01:32:10;;;;;;;10.40;5.90;;;14.90;99.90;;;;;;6259172;22;20405;-88
2022/10/29 01:35:12;;;;;;;13.43;8.80;;;14.90;99.90;;;;;;6259958;22;20187;-87
2022/10/29 01:37:46;;;;;;;7.60;6.33;;;14.90;99.90;;;;;;6260746;22;20415;-88
2022/10/29 01:40:33;;;;;;;11.50;7.45;;;14.90;99.90;;;;;;6287736;22;20357;-87
2022/10/29 01:43:13;;;;;;;7.78;6.15;;;15.10;99.90;;;;;;6287735;22;20250;-88
2022/10/29 01:45:48;;;;;;;6.53;5.23;;;15.30;99.90;;;;;;6286624;22;20178;-87
2022/10/29 01:48:21;;;;;;;9.67;6.67;;;15.30;99.90;;;;;;6287108;22;20482;-87
2022/10/29 01:50:53;;;;;;;9.60;5.80;;;15.40;99.90;;;;;;6235389;22;20403;-87
2022/10/29 01:53:34;;;;;;;9.30;6.68;;;15.40;99.90;;;;;;6146203;23;20492;-88
2022/10/29 01:56:04;;;;;;;8.90;6.20;;;15.30;99.90;;;;;;6179594;23;20181;-86
2022/10/29 01:58:34;;;;;;;10.63;6.87;;;15.30;99.90;;;;;;6150642;23;20418;-87
2022/10/29 02:01:33;;;;;;;8.98;6.25;;;15.30;99.90;;;;;;6164485;23;20617;-88
2022/10/29 02:04:09;;;;;;;9.32;6.63;;;15.30;99.90;;;;;;6161988;23;20198;-88
2022/10/29 02:07:05;;;;;;;12.32;7.82;;;15.30;99.90;;;;;;6138589;23;20184;-87
2022/10/29 02:09:50;;;;;;;14.30;6.10;;;15.20;99.90;;;;;;6162656;23;20544;-88
2022/10/29 02:12:34;;;;;;;14.95;6.82;;;15.20;99.90;;;;;;6260625;22;20392;-87
2022/10/29 02:15:16;;;;;;;6.80;5.35;;;15.20;99.90;;;;;;6259839;22;20197;-88
2022/10/29 02:17:47;;;;;;;10.95;6.30;;;15.20;99.90;;;;;;6263605;22;20443;-87
2022/10/29 02:20:15;;;;;;;9.10;5.50;;;15.30;99.90;;;;;;6285844;22;20374;-87
2022/10/29 02:22:46;;;;;;;7.05;6.03;;;15.30;99.90;;;;;;6285214;22;20183;-86
2022/10/29 02:25:15;;;;;;;7.60;6.37;;;15.30;99.90;;;;;;6285390;22;20174;-86
2022/10/29 02:27:45;;;;;;;11.47;6.50;;;15.30;99.90;;;;;;6258910;22;20396;-87
2022/10/29 02:30:22;;;;;;;9.90;6.70;;;15.30;99.90;;;;;;6285484;22;20376;-87
2022/10/29 02:32:49;;;;;;;10.25;6.53;;;15.30;99.90;;;;;;6258882;22;20392;-87
2022/10/29 02:35:19;;;;;;;6.75;6.05;;;15.30;99.90;;;;;;6284284;22;20186;-87
2022/10/29 02:37:46;;;;;;;7.03;6.37;;;15.30;99.90;;;;;;6257921;22;20242;-86
2022/10/29 02:40:13;;;;;;;7.70;6.30;;;15.20;99.90;;;;;;6259013;22;20424;-87
2022/10/29 02:42:43;;;;;;;7.90;5.33;;;15.20;99.90;;;;;;6259060;22;20973;-87
2022/10/29 02:45:11;;;;;;;10.30;5.93;;;15.10;99.90;;;;;;6258914;22;20388;-87
2022/10/29 02:47:40;;;;;;;8.13;6.75;;;15.00;99.90;;;;;;6258691;22;20209;-86
2022/10/29 02:50:09;;;;;;;14.23;6.45;;;15.00;99.90;;;;;;6259213;22;20217;-86
2022/10/29 02:52:36;;;;;;;7.10;5.20;;;15.00;99.90;;;;;;6258269;22;20171;-86
2022/10/29 02:55:04;;;;;;;9.05;6.05;;;15.00;99.90;;;;;;6260520;22;20250;-87
2022/10/29 02:57:31;;;;;;;8.70;6.55;;;15.00;99.90;;;;;;6259953;22;20171;-86
2022/10/29 02:59:58;;;;;;;10.00;6.47;;;15.00;99.90;;;;;;6286304;22;20201;-87
2022/10/29 03:02:25;;;;;;;11.98;5.00;;;14.90;99.90;;;;;;6259285;22;20182;-86
2022/10/29 03:04:53;;;;;;;10.93;5.80;;;14.80;99.90;;;;;;6258659;22;20528;-86
2022/10/29 03:07:25;;;;;;;8.50;6.10;;;14.80;99.90;;;;;;6284929;22;20178;-86
2022/10/29 03:09:55;;;;;;;7.47;5.22;;;14.70;99.90;;;;;;6284962;22;20210;-88
2022/10/29 03:12:23;;;;;;;9.60;6.03;;;14.90;99.90;;;;;;6285686;22;20213;-86
2022/10/29 03:14:51;;;;;;;8.52;4.88;;;15.10;99.90;;;;;;6259405;22;20442;-86
2022/10/29 03:17:18;;;;;;;6.07;5.00;;;15.20;99.90;;;;;;6286734;22;20190;-86
2022/10/29 03:19:45;;;;;;;8.57;5.38;;;15.40;99.90;;;;;;6260985;22;20612;-87
2022/10/29 03:22:12;;;;;;;9.85;4.72;;;15.20;99.90;;;;;;6290086;22;20175;-86
2022/10/29 03:24:41;;;;;;;5.90;4.67;;;15.40;99.90;;;;;;6291331;22;20182;-86
2022/10/29 03:27:16;;;;;;;6.82;4.55;;;15.40;99.90;;;;;;6293629;22;20418;-86
2022/10/29 03:29:43;;;;;;;6.18;4.75;;;15.30;99.90;;;;;;6279682;22;20228;-85
2022/10/29 03:32:11;;;;;;;8.88;5.47;;;15.20;99.90;;;;;;6305790;22;20214;-86
2022/10/29 03:34:37;;;;;;;10.55;3.92;;;15.10;99.90;;;;;;6305715;22;20198;-86
2022/10/29 03:37:05;;;;;;;5.90;4.37;;;15.20;99.90;;;;;;6305077;22;20197;-86
2022/10/29 03:39:32;;;;;;;4.67;4.27;;;15.20;99.90;;;;;;6304383;22;20411;-87
2022/10/29 03:42:02;;;;;;;7.43;4.15;;;15.10;99.90;;;;;;6278400;22;20414;-88
2022/10/29 03:44:30;;;;;;;6.07;4.13;;;15.20;99.90;;;;;;6279463;22;20151;-87
2022/10/29 03:46:57;;;;;;;4.97;4.47;;;15.10;99.90;;;;;;6278797;22;20162;-87
2022/10/29 03:49:25;;;;;;;5.35;3.80;;;15.20;99.90;;;;;;6306018;22;20195;-86
2022/10/29 03:51:53;;;;;;;9.60;4.45;;;15.00;99.90;;;;;;6299090;22;20189;-86
2022/10/29 03:54:22;;;;;;;6.80;4.63;;;15.00;99.90;;;;;;6293055;22;20206;-88
2022/10/29 03:56:51;;;;;;;8.93;4.43;;;15.00;99.90;;;;;;6287940;22;20179;-87
2022/10/29 03:59:18;;;;;;;4.35;3.90;;;15.00;99.90;;;;;;6287259;22;20179;-88
2022/10/29 04:01:45;;;;;;;8.10;3.83;;;15.00;99.90;;;;;;6261516;22;20171;-88
2022/10/29 04:04:13;;;;;;;5.53;4.10;;;15.10;99.90;;;;;;6262248;22;20213;-88
2022/10/29 04:06:42;;;;;;;11.83;4.17;;;15.00;99.90;;;;;;6266398;22;20185;-85
2022/10/29 04:09:09;;;;;;;5.35;4.85;;;15.00;99.90;;;;;;6269209;22;20451;-87
2022/10/29 04:11:37;;;;;;;9.45;4.68;;;15.00;99.90;;;;;;6291415;22;20270;-86
2022/10/29 04:14:06;;;;;;;5.78;5.18;;;15.00;99.90;;;;;;6284557;22;20183;-86
2022/10/29 04:16:33;;;;;;;9.88;5.05;;;14.90;99.90;;;;;;6284793;22;20183;-85
2022/10/29 04:19:02;;;;;;;9.30;5.13;;;14.90;99.90;;;;;;6287381;22;20179;-87
2022/10/29 04:21:31;;;;;;;5.38;4.80;;;14.80;99.90;;;;;;6290519;22;20454;-88
2022/10/29 04:24:18;;;;;;;5.88;4.05;;;14.90;99.90;;;;;;6266118;22;20175;-89
2022/10/29 04:27:05;;;;;;;4.65;4.18;;;14.90;99.90;;;;;;6266438;22;20355;-88
2022/10/29 04:29:52;;;;;;;9.30;5.07;;;14.90;99.90;;;;;;6266230;22;20561;-88
2022/10/29 04:32:20;;;;;;;11.20;4.30;;;14.90;99.90;;;;;;6288494;22;20174;-86
2022/10/29 04:34:47;;;;;;;6.22;4.70;;;14.80;99.90;;;;;;6287657;22;20187;-86
2022/10/29 04:37:15;;;;;;;7.63;4.47;;;14.70;99.90;;;;;;6235238;22;20225;-86
2022/10/29 04:39:42;;;;;;;7.05;4.50;;;14.50;99.90;;;;;;6258701;22;20186;-87
2022/10/29 04:42:10;;;;;;;15.10;6.03;;;14.40;99.90;;;;;;6285242;22;20190;-87
2022/10/29 04:44:41;;;;;;;7.03;5.43;;;14.30;99.90;;;;;;6256959;22;20171;-86
2022/10/29 04:47:07;;;;;;;9.60;4.95;;;14.50;99.90;;;;;;6256503;22;20183;-87
2022/10/29 04:49:35;;;;;;;6.75;5.60;;;14.40;99.90;;;;;;6285727;22;20195;-87
2022/10/29 04:52:06;;;;;;;14.13;6.50;;;14.60;99.90;;;;;;6266000;22;20193;-87
2022/10/29 04:54:37;;;;;;;7.00;6.40;;;14.60;99.90;;;;;;6286490;22;20182;-87
2022/10/29 04:57:06;;;;;;;8.60;5.70;;;14.50;99.90;;;;;;6259434;22;20174;-87
2022/10/29 04:59:34;;;;;;;9.35;6.53;;;14.40;99.90;;;;;;6287461;22;20213;-87
2022/10/29 05:02:02;;;;;;;15.60;5.57;;;14.40;99.90;;;;;;6288026;22;20205;-86
2022/10/29 05:04:34;;;;;;;7.38;5.88;;;14.20;99.90;;;;;;6276548;22;20199;-87
2022/10/29 05:07:02;;;;;;;6.05;4.53;;;14.00;99.90;;;;;;6277221;22;20159;-87
2022/10/29 05:09:32;;;;;;;7.90;5.38;;;14.10;99.90;;;;;;6273782;22;20205;-88
2022/10/29 05:11:59;;;;;;;25.10;5.20;;;14.10;99.90;;;;;;6272456;22;20175;-86
2022/10/29 05:14:27;;;;;;;5.72;5.10;;;14.20;99.90;;;;;;6290997;22;20411;-87
2022/10/29 05:16:54;;;;;;;11.60;5.53;;;14.10;99.90;;;;;;6260404;22;20230;-87
2022/10/29 05:19:23;;;;;;;7.05;5.35;;;14.10;99.90;;;;;;6287867;22;20422;-87
2022/10/29 05:21:49;;;;;;;5.68;4.90;;;14.00;99.90;;;;;;6289957;22;20178;-86
2022/10/29 05:24:18;;;;;;;12.38;6.90;;;13.90;99.90;;;;;;6265152;22;20187;-87
2022/10/29 05:26:47;;;;;;;6.68;5.90;;;13.90;99.90;;;;;;6259953;22;20174;-88
2022/10/29 05:29:15;;;;;;;9.43;5.85;;;13.90;99.90;;;;;;6287002;22;20230;-87
2022/10/29 05:31:42;;;;;;;12.75;5.70;;;13.90;99.90;;;;;;6285767;22;20229;-88
2022/10/29 05:34:09;;;;;;;6.97;5.63;;;13.90;99.90;;;;;;6286129;22;20186;-87
2022/10/29 05:36:36;;;;;;;10.10;5.47;;;13.80;99.90;;;;;;6258570;22;20225;-87
2022/10/29 05:39:05;;;;;;;6.80;5.53;;;13.70;99.90;;;;;;6286062;22;20528;-86
2022/10/29 05:41:34;;;;;;;6.47;4.70;;;13.60;99.90;;;;;;6288183;22;20174;-87
2022/10/29 05:44:03;;;;;;;8.23;5.57;;;13.60;99.90;;;;;;6290429;22;20175;-86
2022/10/29 05:46:31;;;;;;;6.63;4.65;;;13.60;99.90;;;;;;6263246;22;20226;-87
2022/10/29 05:49:04;;;;;;;6.75;5.00;;;13.60;99.90;;;;;;6287434;22;20242;-87
2022/10/29 05:51:32;;;;;;;7.15;5.15;;;13.60;99.90;;;;;;6287174;22;20178;-85
2022/10/29 05:54:04;;;;;;;7.65;5.50;;;13.60;99.90;;;;;;6286662;22;20164;-86
2022/10/29 05:56:33;;;;;;;9.50;5.53;;;13.70;99.90;;;;;;6285787;22;20179;-85
2022/10/29 05:59:00;;;;;;;10.77;6.20;;;13.90;99.90;;;;;;6283448;22;20553;-87
2022/10/29 06:01:28;;;;;;;5.85;5.35;;;13.80;99.90;;;;;;6256002;22;20174;-87
2022/10/29 06:03:56;;;;;;;6.93;4.80;;;14.00;99.90;;;;;;6256380;22;20183;-88
2022/10/29 06:06:24;;;;;;;7.68;5.55;;;14.20;99.90;;;;;;6284425;22;20478;-88
2022/10/29 06:08:52;;;;;;;8.02;5.50;;;14.30;99.90;;;;;;6286759;22;20225;-87
2022/10/29 06:11:21;;;;;;;5.28;4.20;;;14.40;99.90;;;;;;6258785;22;20182;-88
2022/10/29 06:13:48;;;;;;;7.43;4.93;;;14.60;99.90;;;;;;6286270;22;20175;-88
2022/10/29 06:16:17;;;;;;;11.82;6.47;;;14.80;99.90;;;;;;6234675;22;20750;-87
2022/10/29 06:18:45;;;;;;;6.63;5.38;;;14.90;99.90;;;;;;6260005;22;20186;-87
2022/10/29 06:21:14;;;;;;;9.68;6.15;;;15.10;99.90;;;;;;6260324;22;20171;-87
2022/10/29 06:23:41;;;;;;;13.10;5.93;;;15.30;99.90;;;;;;6286412;22;20182;-87
2022/10/29 06:26:10;;;;;;;10.75;6.05;;;15.50;99.90;;;;;;6285425;22;20486;-88
2022/10/29 06:28:38;;;;;;;6.40;5.67;;;15.70;99.90;;;;;;6285746;22;20217;-88
2022/10/29 06:31:06;;;;;;;10.10;5.83;;;15.80;99.90;;;;;;6282607;22;20448;-88
2022/10/29 06:33:33;;;;;;;9.30;5.37;;;16.20;99.90;;;;;;6256858;22;20593;-88
2022/10/29 06:36:02;;;;;;;9.20;4.93;;;16.20;99.90;;;;;;6257307;22;20384;-88
2022/10/29 06:38:30;;;;;;;7.10;5.70;;;16.40;99.90;;;;;;6258213;22;20901;-87
2022/10/29 06:40:57;;;;;;;10.83;5.40;;;16.30;99.90;;;;;;6286701;22;20411;-86
2022/10/29 06:43:26;;;;;;;8.53;4.13;;;16.40;99.90;;;;;;6284510;22;20415;-86
2022/10/29 06:45:55;;;;;;;10.20;6.40;;;16.40;99.90;;;;;;6257409;22;20430;-88
2022/10/29 06:48:24;;;;;;;8.07;6.87;;;16.30;99.90;;;;;;6258192;22;20364;-88
2022/10/29 06:50:53;;;;;;;8.53;4.73;;;16.40;99.90;;;;;;6283182;22;20432;-87
2022/10/29 06:53:23;;;;;;;7.83;5.33;;;16.20;99.90;;;;;;6258102;22;20434;-86
2022/10/29 06:55:51;;;;;;;7.60;4.73;;;16.20;99.90;;;;;;6289785;22;20372;-85
2022/10/29 06:58:19;;;;;;;9.00;5.97;;;16.20;99.90;;;;;;6286264;22;20406;-86
2022/10/29 07:00:47;;;;;;;6.37;5.07;;;16.20;99.90;;;;;;6260321;22;20395;-84
2022/10/29 07:03:19;;;;;;;11.37;7.20;;;16.30;99.90;;;;;;6260355;22;20470;-85
2022/10/29 07:05:48;;;;;;;10.37;6.17;;;16.50;99.90;;;;;;6258301;22;20427;-86
2022/10/29 07:08:14;;;;;;;9.43;5.60;;;16.90;99.90;;;;;;6285374;22;20640;-87
2022/10/29 07:10:45;;;;;;;15.00;6.20;;;17.10;99.90;;;;;;6284728;22;20428;-86
2022/10/29 07:13:12;;;;;;;12.20;5.40;;;17.60;99.90;;;;;;6285484;22;20418;-87
2022/10/29 07:15:39;;;;;;;11.03;6.30;;;18.00;99.90;;;;;;6259328;22;20449;-87
2022/10/29 07:18:08;;;;;;;13.47;5.00;;;18.70;99.90;;;;;;6285252;22;20392;-87
2022/10/29 07:20:38;;;;;;;10.10;5.80;;;19.10;99.90;;;;;;6284876;22;20454;-86
2022/10/29 07:23:07;;;;;;;15.73;5.30;;;19.40;99.90;;;;;;6262303;22;20372;-84
2022/10/29 07:25:38;;;;;;;6.90;4.90;;;19.90;99.90;;;;;;6294097;22;20384;-85
2022/10/29 07:28:15;;;;;;;7.67;6.77;;;20.50;99.90;;;;;;6303371;22;20735;-85
2022/10/29 07:30:43;;;;;;;9.30;5.03;;;21.10;99.90;;;;;;6277375;22;20453;-84
2022/10/29 07:33:11;;;;;;;13.93;6.77;;;21.10;99.90;;;;;;6285268;22;20371;-84
2022/10/29 07:35:39;;;;;;;11.47;5.80;;;20.80;99.90;;;;;;6284010;22;20404;-85
2022/10/29 07:38:08;;;;;;;8.60;5.60;;;20.40;99.90;;;;;;6284451;22;20414;-86
2022/10/29 07:40:45;;;;;;;8.60;5.63;;;20.10;99.90;;;;;;6284596;22;20421;-85
2022/10/29 07:43:12;;;;;;;16.00;5.33;;;19.90;99.90;;;;;;6258583;22;20446;-86
2022/10/29 07:45:41;;;;;;;17.17;6.50;;;19.80;99.90;;;;;;6233233;22;20390;-84
2022/10/29 07:48:08;;;;;;;7.43;5.83;;;19.60;99.90;;;;;;6257854;22;20442;-86
2022/10/29 07:50:39;;;;;;;7.37;5.40;;;19.50;99.90;;;;;;6289471;22;20437;-86
2022/10/29 07:53:07;;;;;;;12.07;5.23;;;19.50;99.90;;;;;;6259734;22;20400;-87
2022/10/29 07:55:35;;;;;;;7.20;5.13;;;19.60;99.90;;;;;;6260527;22;20376;-84
2022/10/29 07:58:07;;;;;;;9.17;6.03;;;19.70;99.90;;;;;;6300141;22;20688;-86
2022/10/29 08:00:37;;;;;;;9.13;5.77;;;19.90;99.90;;;;;;6287940;22;20396;-88
2022/10/29 08:03:04;;;;;;;10.40;6.97;;;20.00;99.90;;;;;;6281371;22;20499;-87
2022/10/29 08:05:34;;;;;;;8.17;5.47;;;20.40;99.90;;;;;;6284507;22;20400;-85
2022/10/29 08:08:03;;;;;;;7.83;7.03;;;21.10;99.90;;;;;;6258373;22;20399;-86
2022/10/29 08:10:33;;;;;;;18.67;11.47;;;21.50;99.90;;;;;;6285726;22;20439;-86
2022/10/29 08:13:03;;;;;;;12.80;7.03;;;21.50;99.90;;;;;;6259237;22;20373;-86
2022/10/29 08:15:34;;;;;;;10.97;7.50;;;21.40;99.90;;;;;;6286256;22;20395;-86
2022/10/29 08:18:02;;;;;;;11.20;7.70;;;21.10;99.90;;;;;;6287516;22;20362;-88
2022/10/29 08:20:30;;;;;;;11.83;5.87;;;21.20;99.90;;;;;;6264229;22;20422;-86
2022/10/29 08:23:01;;;;;;;6.47;3.93;;;21.30;99.90;;;;;;6290419;22;20397;-86
2022/10/29 08:25:40;;;;;;;6.70;5.30;;;21.30;99.90;;;;;;6294523;22;20432;-86
2022/10/29 08:28:21;;;;;;;9.63;5.00;;;21.30;99.90;;;;;;6260520;22;20396;-85
2022/10/29 08:30:55;;;;;;;9.23;5.20;;;21.70;99.90;;;;;;6279911;22;20451;-85
2022/10/29 08:33:26;;;;;;;6.00;4.03;;;21.90;99.90;;;;;;6273993;22;20402;-86
2022/10/29 08:36:00;;;;;;;7.43;4.30;;;21.40;99.90;;;;;;6300128;22;20417;-88
2022/10/29 08:38:46;;;;;;;7.80;5.03;;;21.10;99.90;;;;;;6268951;22;20395;-87
2022/10/29 08:41:55;;;;;;;6.17;4.50;;;21.10;99.90;;;;;;6242372;22;20351;-88
2022/10/29 08:44:52;;;;;;;9.70;7.00;;;21.20;99.90;;;;;;6293133;22;20406;-85
2022/10/29 08:47:24;;;;;;;5.83;5.03;;;21.60;99.90;;;;;;6298729;22;20351;-82
2022/10/29 08:50:27;;;;;;;14.33;6.33;;;21.70;99.90;;;;;;6302645;22;20433;-84
2022/10/29 08:53:19;;;;;;;6.70;5.20;;;22.40;99.90;;;;;;6208270;23;20786;-86
2022/10/29 08:55:59;;;;;;;8.40;4.40;;;22.60;99.90;;;;;;6238440;22;20382;-87
2022/10/29 08:58:56;;;;;;;9.97;4.87;;;22.50;99.90;;;;;;6261264;22;20377;-85
2022/10/29 09:01:23;;;;;;;6.00;4.50;;;22.50;99.90;;;;;;6286192;22;20375;-85
2022/10/29 09:03:51;;;;;;;8.10;4.60;;;22.00;99.90;;;;;;6286879;22;20409;-83
2022/10/29 09:06:39;;;;;;;5.93;5.33;;;22.10;99.90;;;;;;6259026;22;20396;-85
2022/10/29 09:09:37;;;;;;;7.97;5.23;;;21.70;99.90;;;;;;6260088;22;20359;-84
2022/10/29 09:12:38;;;;;;;6.70;4.17;;;21.40;99.90;;;;;;6287949;22;20454;-86
2022/10/29 09:15:14;;;;;;;7.10;4.30;;;21.20;99.90;;;;;;6285322;22;20414;-86
2022/10/29 09:17:58;;;;;;;5.50;4.40;;;21.20;99.90;;;;;;6281280;22;20462;-83
2022/10/29 09:20:40;;;;;;;7.10;4.07;;;21.20;99.90;;;;;;6281375;22;20362;-85
2022/10/29 09:23:29;;;;;;;14.87;5.93;;;21.20;99.90;;;;;;6280792;22;20433;-85
2022/10/29 09:26:04;;;;;;;19.80;5.60;;;21.10;99.90;;;;;;6283122;22;20380;-84
2022/10/29 09:29:01;;;;;;;8.53;4.53;;;21.10;99.90;;;;;;6282197;22;20418;-83
2022/10/29 09:31:41;;;;;;;6.90;4.50;;;21.10;99.90;;;;;;6255333;22;20425;-83
2022/10/29 09:34:17;;;;;;;12.93;5.23;;;21.20;99.90;;;;;;6282958;22;20494;-85
2022/10/29 09:36:46;;;;;;;7.53;5.37;;;21.40;99.90;;;;;;6258425;22;20399;-83
2022/10/29 09:39:19;;;;;;;9.37;4.43;;;21.30;99.90;;;;;;6284269;22;20432;-85
2022/10/29 09:41:53;;;;;;;6.30;3.93;;;21.30;99.90;;;;;;6282122;22;20413;-82
2022/10/29 09:44:40;;;;;;;8.47;4.40;;;21.20;99.90;;;;;;6281313;22;20378;-83
2022/10/29 09:47:47;;;;;;;8.40;4.57;;;21.10;99.90;;;;;;6282924;22;20500;-83
2022/10/29 09:50:29;;;;;;;13.33;5.83;;;21.10;99.90;;;;;;6283229;22;20427;-85
2022/10/29 09:52:57;;;;;;;5.13;4.60;;;21.20;99.90;;;;;;6256051;22;20594;-81
2022/10/29 09:55:32;;;;;;;8.67;5.63;;;21.10;99.90;;;;;;6286857;22;20818;-83
2022/10/29 09:58:00;;;;;;;4.73;3.93;;;21.40;99.90;;;;;;6259557;22;20355;-85
2022/10/29 10:00:31;;;;;;;7.53;5.90;;;21.60;99.90;;;;;;6285263;22;20363;-83
2022/10/29 10:03:10;;;;;;;8.03;4.23;;;21.80;99.90;;;;;;6260024;22;20395;-82
2022/10/29 10:06:09;;;;;;;7.03;4.57;;;22.00;99.90;;;;;;6256614;22;20374;-84
2022/10/29 10:08:54;;;;;;;10.70;4.70;;;22.40;99.90;;;;;;6280933;22;20387;-83
2022/10/29 10:11:23;;;;;;;11.80;5.03;;;22.50;99.90;;;;;;6255295;22;20406;-82
2022/10/29 10:13:58;;;;;;;7.70;4.67;;;22.60;99.90;;;;;;6260944;22;20359;-83
2022/10/29 10:16:27;;;;;;;7.23;4.87;;;22.50;99.90;;;;;;6287410;22;20376;-83
2022/10/29 10:19:01;;;;;;;15.50;5.60;;;22.50;99.90;;;;;;6288035;22;20786;-85
2022/10/29 10:21:32;;;;;;;7.83;4.47;;;22.50;99.90;;;;;;6289064;22;20384;-85
2022/10/29 10:24:34;;;;;;;8.63;4.90;;;22.40;99.90;;;;;;6262813;22;20426;-88
2022/10/29 10:27:16;;;;;;;9.57;4.63;;;22.10;99.90;;;;;;6279719;22;20363;-84
2022/10/29 10:30:04;;;;;;;8.27;5.90;;;22.00;99.90;;;;;;6279795;22;20391;-84
2022/10/29 10:32:31;;;;;;;7.70;4.90;;;21.90;99.90;;;;;;6265612;22;20744;-84
2022/10/29 10:34:58;;;;;;;7.07;4.37;;;22.00;99.90;;;;;;6281387;22;20390;-83
2022/10/29 10:37:31;;;;;;;8.50;4.43;;;21.90;99.90;;;;;;6279401;22;20363;-83
2022/10/29 10:40:04;;;;;;;10.83;5.40;;;21.70;99.90;;;;;;6281133;22;20351;-87
2022/10/29 10:42:41;;;;;;;4.97;3.50;;;21.90;99.90;;;;;;6255205;22;20364;-83
2022/10/29 10:45:21;;;;;;;7.50;4.40;;;22.10;99.90;;;;;;6287668;22;20430;-83
2022/10/29 10:47:57;;;;;;;7.30;4.50;;;22.20;99.90;;;;;;6281916;22;20351;-86
2022/10/29 10:50:28;;;;;;;8.40;4.27;;;22.00;99.90;;;;;;6255661;22;20404;-83
2022/10/29 10:52:57;;;;;;;5.93;3.70;;;21.90;99.90;;;;;;6285203;22;20720;-85
2022/10/29 10:55:36;;;;;;;5.40;3.63;;;21.90;99.90;;;;;;6263279;22;20410;-83
2022/10/29 10:58:12;;;;;;;10.20;3.90;;;21.80;99.90;;;;;;6287184;22;20794;-88
2022/10/29 11:00:44;;;;;;;8.90;4.70;;;22.00;99.90;;;;;;6290592;22;20376;-86
2022/10/29 11:03:23;;;;;;;12.00;5.03;;;21.90;99.90;;;;;;6294438;22;20483;-84
2022/10/29 11:06:11;;;;;;;4.97;3.70;;;21.80;99.90;;;;;;6298880;22;20436;-87
2022/10/29 11:08:48;;;;;;;5.63;4.60;;;21.50;99.90;;;;;;6296817;22;20410;-83
2022/10/29 11:11:59;;;;;;;4.40;4.00;;;21.40;99.90;;;;;;6259696;22;20624;-88
2022/10/29 11:14:31;;;;;;;3.83;3.53;;;21.40;99.90;;;;;;6260031;22;20330;-89
2022/10/29 11:17:01;;;;;;;7.00;3.73;;;21.40;99.90;;;;;;6258630;22;20442;-84
2022/10/29 11:19:38;;;;;;;9.33;3.97;;;21.40;99.90;;;;;;6260128;22;20478;-88
2022/10/29 11:22:30;;;;;;;8.43;4.80;;;21.40;99.90;;;;;;6288898;22;20365;-84
2022/10/29 11:25:30;;;;;;;5.97;4.20;;;21.40;99.90;;;;;;6262746;22;20695;-84
2022/10/29 11:28:26;;;;;;;8.90;4.60;;;21.40;99.90;;;;;;6291097;22;20770;-84
2022/10/29 11:31:33;;;;;;;4.63;3.70;;;21.40;99.90;;;;;;6250102;22;20468;-87
2022/10/29 11:34:34;;;;;;;4.50;3.43;;;21.30;99.90;;;;;;6290138;22;20425;-83
2022/10/29 11:37:16;;;;;;;8.20;4.23;;;21.20;99.90;;;;;;6286687;22;20397;-86
2022/10/29 11:39:55;;;;;;;10.03;4.23;;;21.30;99.90;;;;;;6257110;22;20739;-84
2022/10/29 11:42:22;;;;;;;4.40;4.00;;;21.20;99.90;;;;;;6257774;22;20363;-84
2022/10/29 11:44:48;;;;;;;8.73;5.27;;;21.20;99.90;;;;;;6254260;22;20620;-87
2022/10/29 11:47:40;;;;;;;8.70;4.60;;;21.10;99.90;;;;;;6253424;23;20409;-88
2022/10/29 11:50:39;;;;;;;5.23;4.50;;;21.10;99.90;;;;;;6254550;23;20356;-88
2022/10/29 11:53:27;;;;;;;4.80;4.30;;;21.20;99.90;;;;;;6255333;23;20364;-86
2022/10/29 11:56:12;;;;;;;7.00;5.17;;;21.20;99.90;;;;;;6247976;22;20413;-84
2022/10/29 11:58:48;;;;;;;4.90;4.40;;;21.30;99.90;;;;;;6256801;23;20404;-86
2022/10/29 12:01:24;;;;;;;8.80;5.10;;;21.30;99.90;;;;;;6256408;23;20682;-86
2022/10/29 12:04:15;;;;;;;7.23;4.50;;;21.50;99.90;;;;;;6255875;22;20371;-85
2022/10/29 12:07:17;;;;;;;7.03;4.93;;;21.40;99.90;;;;;;6255200;22;20411;-85
2022/10/29 12:10:15;;;;;;;9.93;5.23;;;21.40;99.90;;;;;;6255680;23;20348;-85
2022/10/29 12:13:23;;;;;;;10.17;4.87;;;21.70;99.90;;;;;;6256730;23;20421;-84
2022/10/29 12:16:27;;;;;;;8.53;5.00;;;21.50;99.90;;;;;;6257633;22;20420;-86
2022/10/29 12:19:16;;;;;;;11.60;8.00;;;21.70;99.90;;;;;;6257268;22;20383;-86
2022/10/29 12:22:20;;;;;;;8.27;5.37;;;21.80;99.90;;;;;;6257186;23;20387;-86
2022/10/29 12:25:14;;;;;;;7.50;5.80;;;22.10;99.90;;;;;;6255985;23;20716;-86
2022/10/29 12:27:50;;;;;;;9.73;4.97;;;22.30;99.90;;;;;;6259193;23;20559;-85
2022/10/29 12:30:17;;;;;;;8.00;7.20;;;22.00;99.90;;;;;;6257576;23;20359;-86
2022/10/29 12:32:58;;;;;;;7.37;6.03;;;22.10;99.90;;;;;;6251516;23;20415;-86
2022/10/29 12:36:11;;;;;;;6.03;5.33;;;22.10;99.90;;;;;;6254755;23;20412;-87
2022/10/29 12:38:46;;;;;;;14.63;10.23;;;22.00;99.90;;;;;;6195560;23;20430;-86
2022/10/29 12:41:28;;;;;;;9.03;5.10;;;21.90;99.90;;;;;;6248017;22;20408;-84
2022/10/29 12:44:11;;;;;;;5.20;4.70;;;22.00;99.90;;;;;;6251589;23;20425;-85
2022/10/29 12:46:50;;;;;;;6.00;5.23;;;22.00;99.90;;;;;;6254260;22;20616;-87
2022/10/29 12:49:32;;;;;;;9.50;4.90;;;22.10;99.90;;;;;;6254143;23;20404;-87
2022/10/29 12:52:06;;;;;;;6.50;5.40;;;22.20;99.90;;;;;;6251897;22;20606;-87
2022/10/29 12:54:44;;;;;;;5.60;5.00;;;22.20;99.90;;;;;;6250529;23;20399;-85
2022/10/29 12:57:13;;;;;;;8.63;5.80;;;22.10;99.90;;;;;;6252978;23;20410;-84
2022/10/29 12:59:43;;;;;;;7.30;5.40;;;22.30;99.90;;;;;;6253201;22;20390;-85
2022/10/29 13:02:35;;;;;;;8.30;5.30;;;22.30;99.90;;;;;;6249470;23;20451;-85
2022/10/29 13:05:04;;;;;;;10.90;5.90;;;22.50;99.90;;;;;;6253976;22;20419;-84
2022/10/29 13:07:33;;;;;;;11.17;5.93;;;22.60;99.90;;;;;;6266005;22;20452;-85
2022/10/29 13:10:21;;;;;;;14.33;6.00;;;22.50;99.90;;;;;;6267231;22;20417;-86
2022/10/29 13:13:05;;;;;;;13.30;5.90;;;22.40;99.90;;;;;;6268942;22;20451;-85
2022/10/29 13:15:44;;;;;;;8.47;6.10;;;22.20;99.90;;;;;;6262025;22;20428;-85
2022/10/29 13:18:19;;;;;;;5.93;5.17;;;22.00;99.90;;;;;;6253937;23;20382;-86
2022/10/29 13:20:49;;;;;;;7.97;6.37;;;22.00;99.90;;;;;;6266489;22;20363;-87
2022/10/29 13:23:33;;;;;;;5.53;4.90;;;21.90;99.90;;;;;;6266605;22;20460;-88